sensor_id;sensor_type;location;lat;lon;timestamp;temperature;humidity
728;DHT22;347;48.780;9.158;2023-04-30T00:00:28;15.00;31.40
728;DHT22;347;48.780;9.158;2023-04-30T00:02:54;15.00;31.30
728;DHT22;347;48.780;9.158;2023-04-30T00:05:20;15.00;31.30
728;DHT22;347;48.780;9.158;2023-04-30T00:07:45;15.00;31.60
728;DHT22;347;48.780;9.158;2023-04-30T00:10:11;14.90;31.30
728;DHT22;347;48.780;9.158;2023-04-30T00:12:37;14.90;31.30
728;DHT22;347;48.780;9.158;2023-04-30T00:15:03;14.90;31.30
728;DHT22;347;48.780;9.158;2023-04-30T00:17:29;14.80;31.40
728;DHT22;347;48.780;9.158;2023-04-30T00:19:54;14.80;31.40
728;DHT22;347;48.780;9.158;2023-04-30T00:22:20;14.80;31.30
728;DHT22;347;48.780;9.158;2023-04-30T00:24:46;14.80;31.30
728;DHT22;347;48.780;9.158;2023-04-30T00:27:11;14.80;31.50
728;DHT22;347;48.780;9.158;2023-04-30T00:29:37;14.80;31.80
728;DHT22;347;48.780;9.158;2023-04-30T00:32:03;14.80;31.50
728;DHT22;347;48.780;9.158;2023-04-30T00:34:28;14.80;31.50
728;DHT22;347;48.780;9.158;2023-04-30T00:36:54;14.80;31.50
728;DHT22;347;48.780;9.158;2023-04-30T00:39:20;14.80;31.60
728;DHT22;347;48.780;9.158;2023-04-30T00:41:46;14.80;31.70
728;DHT22;347;48.780;9.158;2023-04-30T00:44:12;14.80;31.60
728;DHT22;347;48.780;9.158;2023-04-30T00:46:37;14.80;31.50
728;DHT22;347;48.780;9.158;2023-04-30T00:49:03;14.80;31.60
728;DHT22;347;48.780;9.158;2023-04-30T00:51:31;14.80;31.40
728;DHT22;347;48.780;9.158;2023-04-30T00:54:00;14.80;31.10
728;DHT22;347;48.780;9.158;2023-04-30T00:56:28;14.80;31.30
728;DHT22;347;48.780;9.158;2023-04-30T00:58:55;14.70;31.60
728;DHT22;347;48.780;9.158;2023-04-30T01:01:26;14.70;31.70
728;DHT22;347;48.780;9.158;2023-04-30T01:03:55;14.60;31.50
728;DHT22;347;48.780;9.158;2023-04-30T01:06:20;14.60;31.70
728;DHT22;347;48.780;9.158;2023-04-30T01:08:47;14.70;31.70
728;DHT22;347;48.780;9.158;2023-04-30T01:14:16;14.60;31.80
728;DHT22;347;48.780;9.158;2023-04-30T01:17:01;14.60;31.50
728;DHT22;347;48.780;9.158;2023-04-30T01:19:56;14.70;31.10
728;DHT22;347;48.780;9.158;2023-04-30T01:25:06;14.70;30.90
728;DHT22;347;48.780;9.158;2023-04-30T01:30:35;14.60;31.40
728;DHT22;347;48.780;9.158;2023-04-30T01:33:01;14.60;31.30
728;DHT22;347;48.780;9.158;2023-04-30T01:40:53;14.60;31.40
728;DHT22;347;48.780;9.158;2023-04-30T01:43:33;14.70;31.30
728;DHT22;347;48.780;9.158;2023-04-30T01:46:24;14.70;31.20
728;DHT22;347;48.780;9.158;2023-04-30T01:51:43;14.70;31.20
728;DHT22;347;48.780;9.158;2023-04-30T01:54:36;14.70;31.10
728;DHT22;347;48.780;9.158;2023-04-30T01:57:06;14.50;31.30
728;DHT22;347;48.780;9.158;2023-04-30T01:59:35;14.50;31.70
728;DHT22;347;48.780;9.158;2023-04-30T02:02:03;14.50;31.40
728;DHT22;347;48.780;9.158;2023-04-30T02:04:28;14.50;30.80
728;DHT22;347;48.780;9.158;2023-04-30T02:06:54;14.50;31.00
728;DHT22;347;48.780;9.158;2023-04-30T02:09:20;14.50;31.00
728;DHT22;347;48.780;9.158;2023-04-30T02:11:48;14.60;30.80
728;DHT22;347;48.780;9.158;2023-04-30T02:14:14;14.60;30.40
728;DHT22;347;48.780;9.158;2023-04-30T02:16:39;14.60;30.60
728;DHT22;347;48.780;9.158;2023-04-30T02:19:05;14.50;30.40
728;DHT22;347;48.780;9.158;2023-04-30T02:21:31;14.50;30.30
728;DHT22;347;48.780;9.158;2023-04-30T02:23:56;14.60;30.50
728;DHT22;347;48.780;9.158;2023-04-30T02:26:22;14.50;30.40
728;DHT22;347;48.780;9.158;2023-04-30T02:28:48;14.50;30.20
728;DHT22;347;48.780;9.158;2023-04-30T02:31:13;14.50;30.00
728;DHT22;347;48.780;9.158;2023-04-30T02:33:39;14.40;30.80
728;DHT22;347;48.780;9.158;2023-04-30T02:36:05;14.30;31.00
728;DHT22;347;48.780;9.158;2023-04-30T02:38:30;14.20;31.10
728;DHT22;347;48.780;9.158;2023-04-30T02:40:56;14.10;31.70
728;DHT22;347;48.780;9.158;2023-04-30T02:43:21;14.10;31.90
728;DHT22;347;48.780;9.158;2023-04-30T02:45:47;14.20;31.80
728;DHT22;347;48.780;9.158;2023-04-30T02:48:13;14.20;31.40
728;DHT22;347;48.780;9.158;2023-04-30T02:50:38;14.30;31.30
728;DHT22;347;48.780;9.158;2023-04-30T02:53:04;14.30;31.10
728;DHT22;347;48.780;9.158;2023-04-30T02:55:29;14.40;31.10
728;DHT22;347;48.780;9.158;2023-04-30T02:57:56;14.30;30.80
728;DHT22;347;48.780;9.158;2023-04-30T03:00:21;14.30;31.50
728;DHT22;347;48.780;9.158;2023-04-30T03:02:47;14.30;31.40
728;DHT22;347;48.780;9.158;2023-04-30T03:05:13;14.30;31.20
728;DHT22;347;48.780;9.158;2023-04-30T03:07:40;14.30;30.80
728;DHT22;347;48.780;9.158;2023-04-30T03:10:06;14.40;30.90
728;DHT22;347;48.780;9.158;2023-04-30T03:12:32;14.30;30.70
728;DHT22;347;48.780;9.158;2023-04-30T03:14:57;14.40;30.70
728;DHT22;347;48.780;9.158;2023-04-30T03:17:23;14.40;30.70
728;DHT22;347;48.780;9.158;2023-04-30T03:19:49;14.40;30.80
728;DHT22;347;48.780;9.158;2023-04-30T03:22:15;14.30;30.80
728;DHT22;347;48.780;9.158;2023-04-30T03:24:44;14.30;30.70
728;DHT22;347;48.780;9.158;2023-04-30T03:27:09;14.30;30.90
728;DHT22;347;48.780;9.158;2023-04-30T03:29:35;14.40;31.10
728;DHT22;347;48.780;9.158;2023-04-30T03:32:01;14.40;30.90
728;DHT22;347;48.780;9.158;2023-04-30T03:34:26;14.40;30.90
728;DHT22;347;48.780;9.158;2023-04-30T03:36:52;14.40;31.20
728;DHT22;347;48.780;9.158;2023-04-30T03:39:17;14.30;31.30
728;DHT22;347;48.780;9.158;2023-04-30T03:41:43;14.30;31.40
728;DHT22;347;48.780;9.158;2023-04-30T03:44:08;14.30;31.40
728;DHT22;347;48.780;9.158;2023-04-30T03:46:42;14.30;31.30
728;DHT22;347;48.780;9.158;2023-04-30T03:49:08;14.30;31.40
728;DHT22;347;48.780;9.158;2023-04-30T03:51:35;14.20;31.40
728;DHT22;347;48.780;9.158;2023-04-30T03:54:05;14.20;31.60
728;DHT22;347;48.780;9.158;2023-04-30T03:56:31;14.20;31.60
728;DHT22;347;48.780;9.158;2023-04-30T03:58:57;14.30;31.80
728;DHT22;347;48.780;9.158;2023-04-30T04:01:23;14.20;31.60
728;DHT22;347;48.780;9.158;2023-04-30T04:03:49;14.20;31.80
728;DHT22;347;48.780;9.158;2023-04-30T04:06:14;14.20;31.90
728;DHT22;347;48.780;9.158;2023-04-30T04:08:40;14.20;31.70
728;DHT22;347;48.780;9.158;2023-04-30T04:11:08;14.20;31.80
728;DHT22;347;48.780;9.158;2023-04-30T04:13:34;14.10;32.10
728;DHT22;347;48.780;9.158;2023-04-30T04:16:00;14.10;32.50
728;DHT22;347;48.780;9.158;2023-04-30T04:18:25;14.10;32.30
728;DHT22;347;48.780;9.158;2023-04-30T04:20:51;14.10;31.90
728;DHT22;347;48.780;9.158;2023-04-30T04:23:17;14.20;31.90
728;DHT22;347;48.780;9.158;2023-04-30T04:25:42;14.20;31.80
728;DHT22;347;48.780;9.158;2023-04-30T04:28:09;14.20;31.90
728;DHT22;347;48.780;9.158;2023-04-30T04:30:34;14.20;31.70
728;DHT22;347;48.780;9.158;2023-04-30T04:33:01;14.10;32.40
728;DHT22;347;48.780;9.158;2023-04-30T04:35:26;14.10;32.40
728;DHT22;347;48.780;9.158;2023-04-30T04:37:52;14.10;32.30
728;DHT22;347;48.780;9.158;2023-04-30T04:40:18;14.20;32.10
728;DHT22;347;48.780;9.158;2023-04-30T04:42:43;14.20;31.90
728;DHT22;347;48.780;9.158;2023-04-30T04:45:09;14.30;31.70
728;DHT22;347;48.780;9.158;2023-04-30T04:47:35;14.30;31.40
728;DHT22;347;48.780;9.158;2023-04-30T04:50:02;14.20;31.70
728;DHT22;347;48.780;9.158;2023-04-30T04:52:28;14.30;31.80
728;DHT22;347;48.780;9.158;2023-04-30T04:54:53;14.30;31.50
728;DHT22;347;48.780;9.158;2023-04-30T04:57:19;14.30;32.30
728;DHT22;347;48.780;9.158;2023-04-30T04:59:44;14.30;31.70
728;DHT22;347;48.780;9.158;2023-04-30T05:02:10;14.30;31.70
728;DHT22;347;48.780;9.158;2023-04-30T05:04:36;14.30;31.70
728;DHT22;347;48.780;9.158;2023-04-30T05:07:01;14.30;32.80
728;DHT22;347;48.780;9.158;2023-04-30T05:09:28;14.30;32.30
728;DHT22;347;48.780;9.158;2023-04-30T05:11:53;14.40;32.00
728;DHT22;347;48.780;9.158;2023-04-30T05:14:19;14.40;31.40
728;DHT22;347;48.780;9.158;2023-04-30T05:16:45;14.40;31.10
728;DHT22;347;48.780;9.158;2023-04-30T05:19:11;14.40;30.80
728;DHT22;347;48.780;9.158;2023-04-30T05:21:36;14.40;30.50
728;DHT22;347;48.780;9.158;2023-04-30T05:24:02;14.40;30.40
728;DHT22;347;48.780;9.158;2023-04-30T05:26:28;14.40;30.40
728;DHT22;347;48.780;9.158;2023-04-30T05:28:54;14.40;30.50
728;DHT22;347;48.780;9.158;2023-04-30T05:31:19;14.40;30.70
728;DHT22;347;48.780;9.158;2023-04-30T05:33:45;14.30;30.50
728;DHT22;347;48.780;9.158;2023-04-30T05:36:11;14.40;30.50
728;DHT22;347;48.780;9.158;2023-04-30T05:38:36;14.40;31.30
728;DHT22;347;48.780;9.158;2023-04-30T05:41:02;14.40;31.50
728;DHT22;347;48.780;9.158;2023-04-30T05:43:27;14.40;32.40
728;DHT22;347;48.780;9.158;2023-04-30T05:45:53;14.40;31.60
728;DHT22;347;48.780;9.158;2023-04-30T05:48:19;14.40;31.00
728;DHT22;347;48.780;9.158;2023-04-30T05:50:44;14.50;30.70
728;DHT22;347;48.780;9.158;2023-04-30T05:53:10;14.50;30.70
728;DHT22;347;48.780;9.158;2023-04-30T05:55:35;14.50;31.00
728;DHT22;347;48.780;9.158;2023-04-30T05:58:01;14.50;30.40
728;DHT22;347;48.780;9.158;2023-04-30T06:00:27;14.50;31.40
728;DHT22;347;48.780;9.158;2023-04-30T06:02:52;14.50;30.30
728;DHT22;347;48.780;9.158;2023-04-30T06:05:18;14.50;30.70
728;DHT22;347;48.780;9.158;2023-04-30T06:07:44;14.50;30.00
728;DHT22;347;48.780;9.158;2023-04-30T06:10:10;14.50;29.90
728;DHT22;347;48.780;9.158;2023-04-30T06:12:37;14.30;30.40
728;DHT22;347;48.780;9.158;2023-04-30T06:15:05;14.10;30.80
728;DHT22;347;48.780;9.158;2023-04-30T06:17:31;14.00;31.40
728;DHT22;347;48.780;9.158;2023-04-30T06:19:56;13.90;31.20
728;DHT22;347;48.780;9.158;2023-04-30T06:22:25;13.80;32.60
728;DHT22;347;48.780;9.158;2023-04-30T06:24:51;13.70;32.60
728;DHT22;347;48.780;9.158;2023-04-30T06:27:16;13.80;33.30
728;DHT22;347;48.780;9.158;2023-04-30T06:29:42;13.90;31.80
728;DHT22;347;48.780;9.158;2023-04-30T06:32:08;13.80;31.70
728;DHT22;347;48.780;9.158;2023-04-30T06:34:33;13.90;31.80
728;DHT22;347;48.780;9.158;2023-04-30T06:36:59;13.90;31.40
728;DHT22;347;48.780;9.158;2023-04-30T06:39:25;13.90;31.80
728;DHT22;347;48.780;9.158;2023-04-30T06:41:50;14.00;31.60
728;DHT22;347;48.780;9.158;2023-04-30T06:44:16;14.00;31.00
728;DHT22;347;48.780;9.158;2023-04-30T06:46:43;14.10;31.20
728;DHT22;347;48.780;9.158;2023-04-30T06:49:08;14.20;31.00
728;DHT22;347;48.780;9.158;2023-04-30T06:51:34;14.20;30.40
728;DHT22;347;48.780;9.158;2023-04-30T06:54:00;14.30;30.10
728;DHT22;347;48.780;9.158;2023-04-30T06:56:25;14.40;29.90
728;DHT22;347;48.780;9.158;2023-04-30T06:58:51;14.40;29.90
728;DHT22;347;48.780;9.158;2023-04-30T07:01:17;14.40;29.70
728;DHT22;347;48.780;9.158;2023-04-30T07:03:43;14.50;29.60
728;DHT22;347;48.780;9.158;2023-04-30T07:06:08;14.30;29.20
728;DHT22;347;48.780;9.158;2023-04-30T07:08:34;14.30;30.40
728;DHT22;347;48.780;9.158;2023-04-30T07:11:00;14.40;29.70
728;DHT22;347;48.780;9.158;2023-04-30T07:13:25;14.40;29.40
728;DHT22;347;48.780;9.158;2023-04-30T07:15:51;14.30;29.40
728;DHT22;347;48.780;9.158;2023-04-30T07:18:17;14.30;29.80
728;DHT22;347;48.780;9.158;2023-04-30T07:20:42;14.30;29.80
728;DHT22;347;48.780;9.158;2023-04-30T07:23:08;14.20;29.70
728;DHT22;347;48.780;9.158;2023-04-30T07:25:34;14.30;29.70
728;DHT22;347;48.780;9.158;2023-04-30T07:27:59;14.40;29.80
728;DHT22;347;48.780;9.158;2023-04-30T07:30:25;14.40;28.60
728;DHT22;347;48.780;9.158;2023-04-30T07:32:51;14.50;28.60
728;DHT22;347;48.780;9.158;2023-04-30T07:35:16;14.50;29.00
728;DHT22;347;48.780;9.158;2023-04-30T07:37:42;14.50;28.40
728;DHT22;347;48.780;9.158;2023-04-30T07:40:08;14.40;28.30
728;DHT22;347;48.780;9.158;2023-04-30T07:42:38;14.50;28.40
728;DHT22;347;48.780;9.158;2023-04-30T07:45:05;14.60;28.00
728;DHT22;347;48.780;9.158;2023-04-30T07:47:31;14.50;28.50
728;DHT22;347;48.780;9.158;2023-04-30T07:49:56;14.60;27.70
728;DHT22;347;48.780;9.158;2023-04-30T07:52:22;14.70;27.80
728;DHT22;347;48.780;9.158;2023-04-30T07:54:48;14.70;27.60
728;DHT22;347;48.780;9.158;2023-04-30T07:57:14;14.70;27.80
728;DHT22;347;48.780;9.158;2023-04-30T07:59:40;14.80;27.10
728;DHT22;347;48.780;9.158;2023-04-30T08:02:07;14.90;26.50
728;DHT22;347;48.780;9.158;2023-04-30T08:04:33;14.90;26.50
728;DHT22;347;48.780;9.158;2023-04-30T08:06:58;15.00;26.60
728;DHT22;347;48.780;9.158;2023-04-30T08:09:25;15.00;25.80
728;DHT22;347;48.780;9.158;2023-04-30T08:11:51;15.10;25.00
728;DHT22;347;48.780;9.158;2023-04-30T08:14:17;15.20;25.70
728;DHT22;347;48.780;9.158;2023-04-30T08:16:43;15.30;25.80
728;DHT22;347;48.780;9.158;2023-04-30T08:19:09;15.30;25.80
728;DHT22;347;48.780;9.158;2023-04-30T08:21:34;15.30;25.80
728;DHT22;347;48.780;9.158;2023-04-30T08:24:00;15.40;25.30
728;DHT22;347;48.780;9.158;2023-04-30T08:26:26;15.50;24.50
728;DHT22;347;48.780;9.158;2023-04-30T08:28:52;15.60;24.70
728;DHT22;347;48.780;9.158;2023-04-30T08:31:17;15.60;24.00
728;DHT22;347;48.780;9.158;2023-04-30T08:33:43;15.60;23.50
728;DHT22;347;48.780;9.158;2023-04-30T08:36:09;15.70;23.80
728;DHT22;347;48.780;9.158;2023-04-30T08:38:34;15.60;24.10
728;DHT22;347;48.780;9.158;2023-04-30T08:43:29;15.60;22.40
728;DHT22;347;48.780;9.158;2023-04-30T08:45:55;15.60;22.00
728;DHT22;347;48.780;9.158;2023-04-30T08:48:22;15.60;22.00
728;DHT22;347;48.780;9.158;2023-04-30T08:50:49;15.70;21.90
728;DHT22;347;48.780;9.158;2023-04-30T08:53:15;15.70;21.00
728;DHT22;347;48.780;9.158;2023-04-30T08:55:42;15.70;20.70
728;DHT22;347;48.780;9.158;2023-04-30T08:58:08;15.80;21.10
728;DHT22;347;48.780;9.158;2023-04-30T09:00:37;16.00;21.10
728;DHT22;347;48.780;9.158;2023-04-30T09:03:04;16.20;18.70
728;DHT22;347;48.780;9.158;2023-04-30T09:05:29;16.20;17.70
728;DHT22;347;48.780;9.158;2023-04-30T09:07:55;16.30;17.70
728;DHT22;347;48.780;9.158;2023-04-30T09:10:21;16.30;17.70
728;DHT22;347;48.780;9.158;2023-04-30T09:15:26;16.40;16.80
728;DHT22;347;48.780;9.158;2023-04-30T09:18:24;16.30;16.60
728;DHT22;347;48.780;9.158;2023-04-30T09:20:58;16.30;17.20
728;DHT22;347;48.780;9.158;2023-04-30T09:23:26;16.30;18.00
728;DHT22;347;48.780;9.158;2023-04-30T09:25:52;16.30;18.20
728;DHT22;347;48.780;9.158;2023-04-30T09:28:19;16.30;17.80
728;DHT22;347;48.780;9.158;2023-04-30T09:30:49;16.30;17.80
728;DHT22;347;48.780;9.158;2023-04-30T09:33:15;16.30;17.30
728;DHT22;347;48.780;9.158;2023-04-30T09:35:40;16.30;17.10
728;DHT22;347;48.780;9.158;2023-04-30T09:38:07;16.30;16.70
728;DHT22;347;48.780;9.158;2023-04-30T09:40:37;16.30;16.90
728;DHT22;347;48.780;9.158;2023-04-30T09:43:09;16.30;17.00
728;DHT22;347;48.780;9.158;2023-04-30T09:45:53;16.30;16.70
728;DHT22;347;48.780;9.158;2023-04-30T09:48:24;16.30;16.50
728;DHT22;347;48.780;9.158;2023-04-30T09:50:50;16.30;16.70
728;DHT22;347;48.780;9.158;2023-04-30T09:53:16;16.30;16.80
728;DHT22;347;48.780;9.158;2023-04-30T09:55:47;16.30;17.00
728;DHT22;347;48.780;9.158;2023-04-30T09:58:14;16.30;16.60
728;DHT22;347;48.780;9.158;2023-04-30T10:00:41;16.30;16.10
728;DHT22;347;48.780;9.158;2023-04-30T10:03:09;16.40;16.40
728;DHT22;347;48.780;9.158;2023-04-30T10:05:45;16.40;16.00
728;DHT22;347;48.780;9.158;2023-04-30T10:08:25;16.40;16.20
728;DHT22;347;48.780;9.158;2023-04-30T10:10:57;16.40;15.40
728;DHT22;347;48.780;9.158;2023-04-30T10:13:28;16.40;15.80
728;DHT22;347;48.780;9.158;2023-04-30T10:15:58;16.40;15.30
728;DHT22;347;48.780;9.158;2023-04-30T10:18:32;16.40;15.40
728;DHT22;347;48.780;9.158;2023-04-30T10:21:01;16.50;15.20
728;DHT22;347;48.780;9.158;2023-04-30T10:23:29;16.50;15.00
728;DHT22;347;48.780;9.158;2023-04-30T10:25:56;16.50;15.20
728;DHT22;347;48.780;9.158;2023-04-30T10:28:22;16.50;15.30
728;DHT22;347;48.780;9.158;2023-04-30T10:30:49;16.50;15.00
728;DHT22;347;48.780;9.158;2023-04-30T10:36:21;16.50;14.90
728;DHT22;347;48.780;9.158;2023-04-30T10:38:49;16.50;14.50
728;DHT22;347;48.780;9.158;2023-04-30T10:41:18;16.50;15.00
728;DHT22;347;48.780;9.158;2023-04-30T10:43:46;16.50;14.90
728;DHT22;347;48.780;9.158;2023-04-30T10:46:24;16.50;15.00
728;DHT22;347;48.780;9.158;2023-04-30T10:48:52;16.50;15.30
728;DHT22;347;48.780;9.158;2023-04-30T10:51:19;16.40;15.40
728;DHT22;347;48.780;9.158;2023-04-30T10:53:49;16.50;15.60
728;DHT22;347;48.780;9.158;2023-04-30T10:56:31;16.50;15.70
728;DHT22;347;48.780;9.158;2023-04-30T10:59:00;16.50;16.10
728;DHT22;347;48.780;9.158;2023-04-30T11:01:27;16.50;15.90
728;DHT22;347;48.780;9.158;2023-04-30T11:04:08;16.50;15.60
728;DHT22;347;48.780;9.158;2023-04-30T11:09:15;16.60;15.70
728;DHT22;347;48.780;9.158;2023-04-30T11:11:43;16.70;16.10
728;DHT22;347;48.780;9.158;2023-04-30T11:14:10;16.60;15.80
728;DHT22;347;48.780;9.158;2023-04-30T11:16:36;16.60;15.80
728;DHT22;347;48.780;9.158;2023-04-30T11:19:21;16.70;16.00
728;DHT22;347;48.780;9.158;2023-04-30T11:24:55;16.70;16.20
728;DHT22;347;48.780;9.158;2023-04-30T11:27:26;16.70;15.70
728;DHT22;347;48.780;9.158;2023-04-30T11:29:53;16.70;15.50
728;DHT22;347;48.780;9.158;2023-04-30T11:32:20;16.70;16.00
728;DHT22;347;48.780;9.158;2023-04-30T11:34:47;16.80;15.70
728;DHT22;347;48.780;9.158;2023-04-30T11:37:28;16.80;15.60
728;DHT22;347;48.780;9.158;2023-04-30T11:39:56;16.80;15.70
728;DHT22;347;48.780;9.158;2023-04-30T11:42:21;16.80;15.60
728;DHT22;347;48.780;9.158;2023-04-30T11:44:47;16.80;15.50
728;DHT22;347;48.780;9.158;2023-04-30T11:47:13;16.80;15.60
728;DHT22;347;48.780;9.158;2023-04-30T11:49:40;16.80;16.00
728;DHT22;347;48.780;9.158;2023-04-30T11:52:06;16.80;15.80
728;DHT22;347;48.780;9.158;2023-04-30T11:54:36;16.90;15.90
728;DHT22;347;48.780;9.158;2023-04-30T11:57:02;16.90;15.90
728;DHT22;347;48.780;9.158;2023-04-30T11:59:35;16.90;15.30
728;DHT22;347;48.780;9.158;2023-04-30T12:02:05;16.90;15.30
728;DHT22;347;48.780;9.158;2023-04-30T12:04:30;17.00;15.10
728;DHT22;347;48.780;9.158;2023-04-30T12:06:56;17.00;15.80
728;DHT22;347;48.780;9.158;2023-04-30T12:09:22;17.00;15.40
728;DHT22;347;48.780;9.158;2023-04-30T12:11:48;17.00;15.60
728;DHT22;347;48.780;9.158;2023-04-30T12:14:14;17.00;15.10
728;DHT22;347;48.780;9.158;2023-04-30T12:19:16;17.00;15.40
728;DHT22;347;48.780;9.158;2023-04-30T12:21:43;17.00;15.00
728;DHT22;347;48.780;9.158;2023-04-30T12:24:15;17.00;15.40
728;DHT22;347;48.780;9.158;2023-04-30T12:26:42;17.00;15.10
728;DHT22;347;48.780;9.158;2023-04-30T12:29:10;17.00;14.80
728;DHT22;347;48.780;9.158;2023-04-30T12:31:36;17.10;14.70
728;DHT22;347;48.780;9.158;2023-04-30T12:34:06;17.00;14.40
728;DHT22;347;48.780;9.158;2023-04-30T12:36:33;17.00;14.70
728;DHT22;347;48.780;9.158;2023-04-30T12:39:21;17.10;15.50
728;DHT22;347;48.780;9.158;2023-04-30T12:41:48;17.00;14.60
728;DHT22;347;48.780;9.158;2023-04-30T12:44:23;17.10;14.80
728;DHT22;347;48.780;9.158;2023-04-30T12:46:51;17.00;14.80
728;DHT22;347;48.780;9.158;2023-04-30T12:49:25;17.00;15.00
728;DHT22;347;48.780;9.158;2023-04-30T12:51:57;17.10;14.70
728;DHT22;347;48.780;9.158;2023-04-30T12:54:27;17.10;14.80
728;DHT22;347;48.780;9.158;2023-04-30T12:59:28;17.10;14.80
728;DHT22;347;48.780;9.158;2023-04-30T13:01:54;17.10;14.80
728;DHT22;347;48.780;9.158;2023-04-30T13:04:20;17.00;14.90
728;DHT22;347;48.780;9.158;2023-04-30T13:06:45;17.00;15.30
728;DHT22;347;48.780;9.158;2023-04-30T13:09:11;17.00;15.10
728;DHT22;347;48.780;9.158;2023-04-30T13:11:37;17.00;15.20
728;DHT22;347;48.780;9.158;2023-04-30T13:14:03;17.00;15.40
728;DHT22;347;48.780;9.158;2023-04-30T13:16:29;17.10;15.80
728;DHT22;347;48.780;9.158;2023-04-30T13:18:56;17.20;15.50
728;DHT22;347;48.780;9.158;2023-04-30T13:21:22;17.20;15.30
728;DHT22;347;48.780;9.158;2023-04-30T13:23:49;17.20;14.90
728;DHT22;347;48.780;9.158;2023-04-30T13:26:14;17.20;14.90
728;DHT22;347;48.780;9.158;2023-04-30T13:28:40;17.10;14.90
728;DHT22;347;48.780;9.158;2023-04-30T13:31:06;17.10;14.90
728;DHT22;347;48.780;9.158;2023-04-30T13:33:32;17.10;14.90
728;DHT22;347;48.780;9.158;2023-04-30T13:35:57;17.20;14.60
728;DHT22;347;48.780;9.158;2023-04-30T13:38:23;17.20;14.60
728;DHT22;347;48.780;9.158;2023-04-30T13:40:48;17.20;14.50
728;DHT22;347;48.780;9.158;2023-04-30T13:43:14;17.30;14.00
728;DHT22;347;48.780;9.158;2023-04-30T13:45:40;17.30;14.40
728;DHT22;347;48.780;9.158;2023-04-30T13:48:05;17.40;14.20
728;DHT22;347;48.780;9.158;2023-04-30T13:50:31;17.30;14.50
728;DHT22;347;48.780;9.158;2023-04-30T13:52:56;17.40;14.30
728;DHT22;347;48.780;9.158;2023-04-30T13:55:23;17.40;14.70
728;DHT22;347;48.780;9.158;2023-04-30T13:57:49;17.40;14.10
728;DHT22;347;48.780;9.158;2023-04-30T14:00:15;17.40;13.90
728;DHT22;347;48.780;9.158;2023-04-30T14:02:41;17.40;14.10
728;DHT22;347;48.780;9.158;2023-04-30T14:05:07;17.40;13.90
728;DHT22;347;48.780;9.158;2023-04-30T14:07:33;17.50;14.50
728;DHT22;347;48.780;9.158;2023-04-30T14:09:59;17.50;13.90
728;DHT22;347;48.780;9.158;2023-04-30T14:12:25;17.50;13.70
728;DHT22;347;48.780;9.158;2023-04-30T14:14:51;17.50;13.90
728;DHT22;347;48.780;9.158;2023-04-30T14:17:16;17.50;13.70
728;DHT22;347;48.780;9.158;2023-04-30T14:19:42;17.40;14.40
728;DHT22;347;48.780;9.158;2023-04-30T14:22:08;17.40;14.10
728;DHT22;347;48.780;9.158;2023-04-30T14:24:33;17.50;13.90
728;DHT22;347;48.780;9.158;2023-04-30T14:27:00;17.50;14.30
728;DHT22;347;48.780;9.158;2023-04-30T14:29:27;17.40;13.80
728;DHT22;347;48.780;9.158;2023-04-30T14:31:52;17.40;13.60
728;DHT22;347;48.780;9.158;2023-04-30T14:34:18;17.40;13.90
728;DHT22;347;48.780;9.158;2023-04-30T14:36:44;17.30;13.50
728;DHT22;347;48.780;9.158;2023-04-30T14:39:09;17.30;13.60
728;DHT22;347;48.780;9.158;2023-04-30T14:41:35;17.30;13.60
728;DHT22;347;48.780;9.158;2023-04-30T14:44:02;17.30;13.50
728;DHT22;347;48.780;9.158;2023-04-30T14:46:28;17.40;13.60
728;DHT22;347;48.780;9.158;2023-04-30T14:48:55;17.30;13.70
728;DHT22;347;48.780;9.158;2023-04-30T14:51:20;17.30;14.20
728;DHT22;347;48.780;9.158;2023-04-30T14:53:46;17.30;13.70
728;DHT22;347;48.780;9.158;2023-04-30T14:56:12;17.30;13.90
728;DHT22;347;48.780;9.158;2023-04-30T14:58:37;17.40;13.90
728;DHT22;347;48.780;9.158;2023-04-30T15:01:03;17.40;13.50
728;DHT22;347;48.780;9.158;2023-04-30T15:03:28;17.40;13.50
728;DHT22;347;48.780;9.158;2023-04-30T15:05:55;17.40;13.30
728;DHT22;347;48.780;9.158;2023-04-30T15:08:21;17.40;13.30
728;DHT22;347;48.780;9.158;2023-04-30T15:10:46;17.40;13.90
728;DHT22;347;48.780;9.158;2023-04-30T15:13:13;17.40;13.50
728;DHT22;347;48.780;9.158;2023-04-30T15:15:38;17.50;13.70
728;DHT22;347;48.780;9.158;2023-04-30T15:18:04;17.50;13.20
728;DHT22;347;48.780;9.158;2023-04-30T15:20:31;17.50;13.10
728;DHT22;347;48.780;9.158;2023-04-30T15:22:57;17.50;13.40
728;DHT22;347;48.780;9.158;2023-04-30T15:25:23;17.50;13.50
728;DHT22;347;48.780;9.158;2023-04-30T15:27:49;17.50;13.30
728;DHT22;347;48.780;9.158;2023-04-30T15:30:16;17.50;13.40
728;DHT22;347;48.780;9.158;2023-04-30T15:32:42;17.50;14.00
728;DHT22;347;48.780;9.158;2023-04-30T15:35:08;17.50;13.40
728;DHT22;347;48.780;9.158;2023-04-30T15:37:33;17.50;13.30
728;DHT22;347;48.780;9.158;2023-04-30T15:39:59;17.50;13.30
728;DHT22;347;48.780;9.158;2023-04-30T15:42:25;17.50;13.40
728;DHT22;347;48.780;9.158;2023-04-30T15:44:51;17.50;13.50
728;DHT22;347;48.780;9.158;2023-04-30T15:47:17;17.50;13.60
728;DHT22;347;48.780;9.158;2023-04-30T15:49:43;17.50;13.50
728;DHT22;347;48.780;9.158;2023-04-30T15:52:08;17.50;13.30
728;DHT22;347;48.780;9.158;2023-04-30T15:54:34;17.40;13.30
728;DHT22;347;48.780;9.158;2023-04-30T15:57:00;17.40;13.50
728;DHT22;347;48.780;9.158;2023-04-30T15:59:27;17.40;13.70
728;DHT22;347;48.780;9.158;2023-04-30T16:01:52;17.40;13.90
728;DHT22;347;48.780;9.158;2023-04-30T16:04:18;17.30;14.20
728;DHT22;347;48.780;9.158;2023-04-30T16:06:44;17.40;14.10
728;DHT22;347;48.780;9.158;2023-04-30T16:09:11;17.40;14.30
728;DHT22;347;48.780;9.158;2023-04-30T16:11:37;17.40;14.20
728;DHT22;347;48.780;9.158;2023-04-30T16:14:04;17.30;14.70
728;DHT22;347;48.780;9.158;2023-04-30T16:16:31;17.30;14.00
728;DHT22;347;48.780;9.158;2023-04-30T16:18:56;17.30;13.50
728;DHT22;347;48.780;9.158;2023-04-30T16:21:22;17.30;13.60
728;DHT22;347;48.780;9.158;2023-04-30T16:23:48;17.30;13.50
728;DHT22;347;48.780;9.158;2023-04-30T16:26:15;17.30;13.50
728;DHT22;347;48.780;9.158;2023-04-30T16:28:41;17.30;13.60
728;DHT22;347;48.780;9.158;2023-04-30T16:31:07;17.30;13.60
728;DHT22;347;48.780;9.158;2023-04-30T16:33:32;17.30;13.80
728;DHT22;347;48.780;9.158;2023-04-30T16:35:58;17.30;13.70
728;DHT22;347;48.780;9.158;2023-04-30T16:38:24;17.30;13.50
728;DHT22;347;48.780;9.158;2023-04-30T16:40:50;17.30;13.80
728;DHT22;347;48.780;9.158;2023-04-30T16:43:15;17.30;14.00
728;DHT22;347;48.780;9.158;2023-04-30T16:45:41;17.30;14.10
728;DHT22;347;48.780;9.158;2023-04-30T16:48:06;17.20;14.40
728;DHT22;347;48.780;9.158;2023-04-30T16:50:32;17.30;14.50
728;DHT22;347;48.780;9.158;2023-04-30T16:52:58;17.30;13.80
728;DHT22;347;48.780;9.158;2023-04-30T16:55:23;17.30;13.60
728;DHT22;347;48.780;9.158;2023-04-30T16:57:50;17.20;14.00
728;DHT22;347;48.780;9.158;2023-04-30T17:00:16;17.20;13.80
728;DHT22;347;48.780;9.158;2023-04-30T17:02:43;17.10;14.00
728;DHT22;347;48.780;9.158;2023-04-30T17:05:13;17.10;14.10
728;DHT22;347;48.780;9.158;2023-04-30T17:07:42;17.20;14.00